createdAt,value
2022-12-01T00:01:48.652Z,60.88
2022-12-01T00:04:18.055Z,59.63
2022-12-01T00:06:47.056Z,56.20
2022-12-01T00:09:34.133Z,54.88
2022-12-01T00:12:04.756Z,50.25
2022-12-01T00:14:34.081Z,48.95
2022-12-01T00:17:04.985Z,46.38
2022-12-01T00:19:34.582Z,50.35
2022-12-01T00:22:03.609Z,57.65
2022-12-01T00:24:32.989Z,55.83
2022-12-01T00:27:03.528Z,50.15
2022-12-01T00:29:32.925Z,50.83
2022-12-01T00:32:01.982Z,50.00
2022-12-01T00:34:31.490Z,47.72
2022-12-01T00:37:00.845Z,49.58
2022-12-01T00:39:30.421Z,49.42
2022-12-01T00:41:59.557Z,45.50
2022-12-01T00:44:30.356Z,47.78
2022-12-01T00:46:59.423Z,50.67
2022-12-01T00:49:28.911Z,52.03
2022-12-01T00:51:57.980Z,50.53
2022-12-01T00:54:27.371Z,46.00
2022-12-01T00:56:56.345Z,43.17
2022-12-01T00:59:25.767Z,46.67
2022-12-01T01:01:56.199Z,43.97
2022-12-01T01:04:25.888Z,46.53
2022-12-01T01:06:54.868Z,42.90
2022-12-01T01:09:24.284Z,40.35
2022-12-01T01:11:53.380Z,38.83
2022-12-01T01:14:24.195Z,41.38
2022-12-01T01:16:54.189Z,40.08
2022-12-01T01:19:25.366Z,39.13
2022-12-01T01:21:54.361Z,43.13
2022-12-01T01:24:23.874Z,44.78
2022-12-01T01:26:53.565Z,42.30
2022-12-01T01:29:23.280Z,43.30
2022-12-01T01:31:52.391Z,36.97
2022-12-01T01:34:21.741Z,36.72
2022-12-01T01:36:52.416Z,37.70
2022-12-01T01:39:22.243Z,40.47
2022-12-01T01:41:51.272Z,49.40
2022-12-01T01:44:50.228Z,50.05
2022-12-01T01:47:23.188Z,44.67
2022-12-01T01:49:53.566Z,39.83
2022-12-01T01:52:24.788Z,41.08
2022-12-01T01:54:56.939Z,40.28
2022-12-01T01:57:32.115Z,40.30
2022-12-01T02:00:08.051Z,34.17
2022-12-01T02:02:45.492Z,34.53
2022-12-01T02:05:19.166Z,33.80
2022-12-01T02:07:51.501Z,29.90
2022-12-01T02:10:23.473Z,28.63
2022-12-01T02:13:03.848Z,29.30
2022-12-01T02:15:39.295Z,28.15
2022-12-01T02:18:23.673Z,26.80
2022-12-01T02:21:28.685Z,28.55
2022-12-01T02:24:57.943Z,39.78
2022-12-01T02:27:45.529Z,26.20
2022-12-01T02:30:18.131Z,24.73
2022-12-01T02:33:03.247Z,28.33
2022-12-01T02:35:42.318Z,22.10
2022-12-01T02:38:17.844Z,23.75
2022-12-01T02:40:53.353Z,25.45
2022-12-01T02:43:28.987Z,26.25
2022-12-01T02:46:01.785Z,20.17
2022-12-01T02:48:34.774Z,22.20
2022-12-01T02:51:09.482Z,20.88
2022-12-01T02:53:39.191Z,17.35
2022-12-01T02:56:12.098Z,18.05
2022-12-01T02:58:41.667Z,20.25
2022-12-01T03:01:33.826Z,23.42
2022-12-01T03:04:26.260Z,21.45
2022-12-01T03:07:03.506Z,23.75
2022-12-01T03:09:47.666Z,26.90
2022-12-01T03:12:27.561Z,25.45
2022-12-01T03:15:06.918Z,21.50
2022-12-01T03:17:43.479Z,18.20
2022-12-01T03:20:20.866Z,22.48
2022-12-01T03:22:55.123Z,21.65
2022-12-01T03:25:27.195Z,20.00
2022-12-01T03:28:20.643Z,25.00
2022-12-01T03:36:08.283Z,23.00
2022-12-01T03:38:41.177Z,20.88
2022-12-01T03:41:15.982Z,17.60
2022-12-01T03:43:52.837Z,19.15
2022-12-01T03:46:30.794Z,20.75
2022-12-01T03:49:00.358Z,22.17
2022-12-01T03:51:40.717Z,23.42
2022-12-01T03:54:17.499Z,18.88
2022-12-01T03:56:56.302Z,22.35
2022-12-01T03:59:28.890Z,22.08
2022-12-01T04:01:58.732Z,17.90
2022-12-01T04:04:28.185Z,22.23
2022-12-01T04:06:59.911Z,25.88
2022-12-01T04:09:29.292Z,27.95
2022-12-01T04:12:15.626Z,24.10
2022-12-01T04:14:45.002Z,20.10
2022-12-01T04:17:14.139Z,19.40
2022-12-01T04:19:43.571Z,18.95
2022-12-01T04:22:14.085Z,18.05
2022-12-01T04:24:43.564Z,18.83
2022-12-01T04:27:12.705Z,20.08
2022-12-01T04:29:42.079Z,16.73
2022-12-01T04:32:11.625Z,17.83
2022-12-01T04:34:40.905Z,22.50
2022-12-01T04:37:12.079Z,17.50
2022-12-01T04:39:43.205Z,17.95
2022-12-01T04:42:12.692Z,19.55
2022-12-01T04:44:42.118Z,18.08
2022-12-01T04:47:11.210Z,16.35
2022-12-01T04:49:40.525Z,18.75
2022-12-01T04:52:09.579Z,16.75
2022-12-01T04:54:39.042Z,19.23
2022-12-01T04:57:09.557Z,18.52
2022-12-01T04:59:39.022Z,15.95
2022-12-01T05:02:08.129Z,18.75
2022-12-01T05:04:38.880Z,28.95
2022-12-01T05:07:08.102Z,35.20
2022-12-01T05:09:37.586Z,26.73
2022-12-01T05:12:08.696Z,26.55
2022-12-01T05:14:38.021Z,20.92
2022-12-01T05:17:07.096Z,19.00
2022-12-01T05:19:54.134Z,19.80
2022-12-01T05:22:49.395Z,19.52
2022-12-01T05:25:12.749Z,18.45
2022-12-01T05:27:43.111Z,21.45
2022-12-01T05:30:13.274Z,24.20
2022-12-01T05:32:42.258Z,23.92
2022-12-01T05:35:11.683Z,20.58
2022-12-01T05:37:40.775Z,19.45
2022-12-01T05:40:11.238Z,20.38
2022-12-01T05:42:40.237Z,20.63
2022-12-01T05:45:12.019Z,18.98
2022-12-01T05:47:41.140Z,21.15
2022-12-01T05:50:11.522Z,18.15
2022-12-01T05:52:40.623Z,20.40
2022-12-01T05:55:10.499Z,19.58
2022-12-01T05:57:39.597Z,22.75
2022-12-01T06:00:13.175Z,20.48
2022-12-01T06:02:42.959Z,20.52
2022-12-01T06:05:12.447Z,19.25
2022-12-01T06:07:41.576Z,16.25
2022-12-01T06:10:12.082Z,15.65
2022-12-01T06:12:41.814Z,16.80
2022-12-01T06:15:14.221Z,16.55
2022-12-01T06:17:43.347Z,16.00
2022-12-01T06:20:13.896Z,16.20
2022-12-01T06:22:42.968Z,14.95
2022-12-01T06:25:12.696Z,17.92
2022-12-01T06:27:41.691Z,16.55
2022-12-01T06:30:13.607Z,14.25
2022-12-01T06:32:42.758Z,18.83
2022-12-01T06:35:12.729Z,16.02
2022-12-01T06:37:41.740Z,17.90
2022-12-01T06:40:12.400Z,16.60
2022-12-01T06:42:41.416Z,19.48
2022-12-01T06:45:13.536Z,22.42
2022-12-01T06:47:42.759Z,20.73
2022-12-01T06:50:12.808Z,22.08
2022-12-01T06:52:42.037Z,23.98
2022-12-01T06:55:11.726Z,27.25
2022-12-01T06:57:41.090Z,22.98
2022-12-01T07:00:14.575Z,19.60
2022-12-01T07:02:44.404Z,19.23
2022-12-01T07:05:14.070Z,20.63
2022-12-01T07:07:43.330Z,19.42
2022-12-01T07:10:14.259Z,20.02
2022-12-01T07:12:43.404Z,22.95
2022-12-01T07:15:14.326Z,23.60
2022-12-01T07:17:43.352Z,20.98
2022-12-01T07:20:13.759Z,22.55
2022-12-01T07:22:43.262Z,21.48
2022-12-01T07:25:12.666Z,22.77
2022-12-01T07:27:41.685Z,21.08
2022-12-01T07:30:11.873Z,20.95
2022-12-01T07:32:42.275Z,24.58
2022-12-01T07:35:11.737Z,25.05
2022-12-01T07:37:40.705Z,23.95
2022-12-01T07:40:11.191Z,23.85
2022-12-01T07:42:43.303Z,22.98
2022-12-01T07:45:12.978Z,25.95
2022-12-01T07:47:44.592Z,21.92
2022-12-01T07:50:14.199Z,29.77
2022-12-01T07:52:43.357Z,26.23
2022-12-01T07:55:12.793Z,31.48
2022-12-01T07:57:41.849Z,25.58
2022-12-01T08:00:14.167Z,27.88
2022-12-01T08:02:44.592Z,22.95
2022-12-01T08:05:14.173Z,25.23
2022-12-01T08:07:43.398Z,26.45
2022-12-01T08:10:13.771Z,30.23
2022-12-01T08:12:42.775Z,24.23
2022-12-01T08:15:12.740Z,25.00
2022-12-01T08:17:43.304Z,27.23
2022-12-01T08:20:13.390Z,27.05
2022-12-01T08:22:42.855Z,28.77
2022-12-01T08:25:12.507Z,24.83
2022-12-01T08:27:41.800Z,23.67
2022-12-01T08:30:12.080Z,18.10
2022-12-01T08:32:41.162Z,20.88
2022-12-01T08:35:12.516Z,27.85
2022-12-01T08:37:41.618Z,20.45
2022-12-01T08:40:11.825Z,22.45
2022-12-01T08:42:40.915Z,20.23
2022-12-01T08:45:11.265Z,17.73
2022-12-01T08:47:40.357Z,22.08
2022-12-01T08:50:12.355Z,22.48
2022-12-01T08:52:41.441Z,22.50
2022-12-01T08:55:11.114Z,22.05
2022-12-01T08:57:40.348Z,18.20
2022-12-01T09:00:10.754Z,20.15
2022-12-01T09:02:39.842Z,14.20
2022-12-01T09:05:09.851Z,16.08
2022-12-01T09:07:41.194Z,40.38
2022-12-01T09:10:11.728Z,24.55
2022-12-01T09:12:40.911Z,17.88
2022-12-01T09:15:10.906Z,19.02
2022-12-01T09:17:39.907Z,17.92
2022-12-01T09:20:10.577Z,12.70
2022-12-01T09:22:41.076Z,14.75
2022-12-01T09:25:14.815Z,16.40
2022-12-01T09:27:43.871Z,18.92
2022-12-01T09:30:14.123Z,28.30
2022-12-01T09:32:43.194Z,22.35
2022-12-01T09:35:12.521Z,15.75
2022-12-01T09:37:42.885Z,19.25
2022-12-01T09:40:16.608Z,17.75
2022-12-01T09:42:48.831Z,17.20
2022-12-01T09:45:26.281Z,17.23
2022-12-01T09:47:57.921Z,17.02
2022-12-01T09:50:30.966Z,36.95
2022-12-01T09:53:04.981Z,21.63
2022-12-01T09:55:35.999Z,19.92
2022-12-01T09:58:15.737Z,14.52
2022-12-01T10:00:45.541Z,16.77
2022-12-01T10:03:25.394Z,14.48
2022-12-01T10:08:58.080Z,15.73
2022-12-01T10:11:33.969Z,18.13
2022-12-01T10:14:04.781Z,12.13
2022-12-01T10:16:42.455Z,11.57
2022-12-01T10:19:19.314Z,12.77
2022-12-01T10:22:02.098Z,16.55
2022-12-01T10:24:47.200Z,18.50
2022-12-01T10:27:28.860Z,16.67
2022-12-01T10:30:05.479Z,17.38
2022-12-01T10:32:47.085Z,13.15
2022-12-01T10:35:18.646Z,14.25
2022-12-01T10:37:51.168Z,14.55
2022-12-01T10:40:21.811Z,14.88
2022-12-01T10:42:52.495Z,15.10
2022-12-01T10:45:27.028Z,16.30
2022-12-01T10:48:17.845Z,12.07
2022-12-01T10:50:49.359Z,11.27
2022-12-01T10:53:30.977Z,12.57
2022-12-01T10:56:06.998Z,11.70
2022-12-01T10:58:45.501Z,14.52
2022-12-01T11:01:21.645Z,17.67
2022-12-01T11:03:53.953Z,12.45
2022-12-01T11:06:26.453Z,10.98
2022-12-01T11:09:00.228Z,11.55
2022-12-01T11:11:36.871Z,18.38
2022-12-01T11:14:18.087Z,15.48
2022-12-01T11:16:49.346Z,12.77
2022-12-01T11:19:29.168Z,10.18
2022-12-01T11:22:00.541Z,17.80
2022-12-01T11:24:42.391Z,13.55
2022-12-01T11:27:19.850Z,12.38
2022-12-01T11:29:52.133Z,11.95
2022-12-01T11:32:25.640Z,8.68
2022-12-01T11:34:58.764Z,7.70
2022-12-01T11:37:33.427Z,9.15
2022-12-01T11:40:16.673Z,9.13
2022-12-01T11:42:51.957Z,10.68
2022-12-01T11:45:29.091Z,18.70
2022-12-01T11:48:07.840Z,18.00
2022-12-01T11:50:42.898Z,9.57
2022-12-01T11:53:30.513Z,15.37
2022-12-01T11:56:16.100Z,14.55
2022-12-01T11:58:49.331Z,9.80
2022-12-01T12:01:30.710Z,16.02
2022-12-01T12:04:11.168Z,14.18
2022-12-01T12:06:50.387Z,19.98
2022-12-01T12:09:45.056Z,14.43
2022-12-01T12:12:29.309Z,11.25
2022-12-01T12:15:12.911Z,11.10
2022-12-01T12:18:06.743Z,10.40
2022-12-01T12:20:48.038Z,13.35
2022-12-01T12:23:44.874Z,12.25
2022-12-01T12:26:21.360Z,10.23
2022-12-01T12:29:18.714Z,10.25
2022-12-01T12:32:02.583Z,16.05
2022-12-01T12:34:46.685Z,13.45
2022-12-01T12:37:26.454Z,8.63
2022-12-01T12:40:27.792Z,8.13
2022-12-01T12:43:08.104Z,6.90
2022-12-01T12:45:56.846Z,7.82
2022-12-01T12:49:03.502Z,9.40
2022-12-01T12:51:38.112Z,7.00
2022-12-01T12:54:20.674Z,8.27
2022-12-01T12:56:56.478Z,6.90
2022-12-01T12:59:31.406Z,5.38
2022-12-01T13:02:09.890Z,9.82
2022-12-01T13:04:46.530Z,10.13
2022-12-01T13:07:33.450Z,10.10
2022-12-01T13:10:10.051Z,7.80
2022-12-01T13:12:44.843Z,10.63
2022-12-01T13:15:19.066Z,6.93
2022-12-01T13:17:52.516Z,10.05
2022-12-01T13:20:27.746Z,11.35
2022-12-01T13:22:59.825Z,8.93
2022-12-01T13:25:34.100Z,6.65
2022-12-01T13:28:06.017Z,8.73
2022-12-01T13:30:35.132Z,11.00
2022-12-01T13:33:06.516Z,12.25
2022-12-01T13:35:39.132Z,8.50
2022-12-01T13:38:29.599Z,7.90
2022-12-01T13:41:23.983Z,11.73
2022-12-01T13:44:00.785Z,10.20
2022-12-01T13:46:33.376Z,9.43
2022-12-01T13:49:04.662Z,9.55
2022-12-01T13:52:12.014Z,10.45
2022-12-01T13:55:03.425Z,19.13
2022-12-01T13:57:34.708Z,23.13
2022-12-01T14:00:21.170Z,20.33
2022-12-01T14:03:40.999Z,18.55
2022-12-01T14:06:27.408Z,24.50
2022-12-01T14:09:01.139Z,32.05
2022-12-01T14:11:32.936Z,22.05
2022-12-01T14:14:11.640Z,17.85
2022-12-01T14:16:48.915Z,18.30
2022-12-01T14:19:34.833Z,19.38
2022-12-01T14:22:05.770Z,19.10
2022-12-01T14:24:40.346Z,13.35
2022-12-01T14:27:11.949Z,11.67
2022-12-01T14:29:43.263Z,32.42
2022-12-01T14:32:24.176Z,31.77
2022-12-01T14:35:04.609Z,46.22
2022-12-01T14:37:50.841Z,50.53
2022-12-01T14:40:30.042Z,53.08
2022-12-01T14:43:18.253Z,46.17
2022-12-01T14:45:58.585Z,46.40
2022-12-01T14:48:35.679Z,42.45
2022-12-01T14:51:27.831Z,24.48
2022-12-01T14:53:58.673Z,18.75
2022-12-01T14:56:28.720Z,16.17
2022-12-01T14:59:00.031Z,17.17
2022-12-01T15:01:34.054Z,17.55
2022-12-01T15:04:05.889Z,18.38
2022-12-01T15:06:38.779Z,18.50
2022-12-01T15:12:03.714Z,18.67
2022-12-01T15:14:35.282Z,16.50
2022-12-01T15:17:06.354Z,17.90
2022-12-01T15:19:38.584Z,23.50
2022-12-01T15:22:17.929Z,28.65
2022-12-01T15:24:48.030Z,41.45
2022-12-01T15:27:31.517Z,36.78
2022-12-01T15:30:04.526Z,38.45
2022-12-01T15:32:37.811Z,66.22
2022-12-01T15:35:21.179Z,40.28
2022-12-01T15:37:53.492Z,32.30
2022-12-01T15:43:19.160Z,19.77
2022-12-01T15:45:52.301Z,22.88
2022-12-01T15:48:31.266Z,19.05
2022-12-01T15:51:09.928Z,23.80
2022-12-01T15:53:47.662Z,16.40
2022-12-01T15:56:17.738Z,25.67
2022-12-01T15:58:49.022Z,19.00
2022-12-01T16:01:20.671Z,20.88
2022-12-01T16:03:58.495Z,25.63
2022-12-01T16:06:31.563Z,28.17
2022-12-01T16:09:05.102Z,20.02
2022-12-01T16:11:34.772Z,20.60
2022-12-01T16:14:08.045Z,20.77
2022-12-01T16:16:44.321Z,20.95
2022-12-01T16:19:32.587Z,26.60
2022-12-01T16:22:13.254Z,22.58
2022-12-01T16:24:49.590Z,69.97
2022-12-01T16:27:23.691Z,59.58
2022-12-01T16:29:54.984Z,54.97
2022-12-01T16:32:29.387Z,55.55
2022-12-01T16:34:58.674Z,45.35
2022-12-01T16:37:28.718Z,31.63
2022-12-01T16:39:59.617Z,28.15
2022-12-01T16:42:29.515Z,32.33
2022-12-01T16:44:58.509Z,35.22
2022-12-01T16:47:27.951Z,34.17
2022-12-01T16:49:56.981Z,45.10
2022-12-01T16:55:31.531Z,39.05
2022-12-01T16:58:00.901Z,66.38
2022-12-01T17:00:30.210Z,65.97
2022-12-01T17:03:00.164Z,70.05
2022-12-01T17:05:29.369Z,61.33
2022-12-01T17:07:58.931Z,62.45
2022-12-01T17:10:29.361Z,58.53
2022-12-01T17:12:59.391Z,46.47
2022-12-01T17:15:28.850Z,65.72
2022-12-01T17:17:58.297Z,55.97
2022-12-01T17:20:27.391Z,67.88
2022-12-01T17:22:56.725Z,61.10
2022-12-01T17:25:25.982Z,51.38
2022-12-01T17:27:57.065Z,63.65
2022-12-01T17:30:26.596Z,62.05
2022-12-01T17:32:56.046Z,51.65
2022-12-01T17:35:25.232Z,57.78
2022-12-01T17:37:54.541Z,52.72
2022-12-01T17:40:25.192Z,58.63
2022-12-01T17:42:56.097Z,40.97
2022-12-01T17:45:25.338Z,52.53
2022-12-01T17:47:56.546Z,50.60
2022-12-01T17:50:26.485Z,63.08
2022-12-01T17:52:55.878Z,58.97
2022-12-01T17:55:25.203Z,60.63
2022-12-01T17:57:58.758Z,52.20
2022-12-01T18:00:29.070Z,63.90
2022-12-01T18:02:58.706Z,51.38
2022-12-01T18:05:29.379Z,47.67
2022-12-01T18:07:59.038Z,59.35
2022-12-01T18:10:28.159Z,48.55
2022-12-01T18:12:59.019Z,50.53
2022-12-01T18:15:31.783Z,44.85
2022-12-01T18:20:32.820Z,47.67
2022-12-01T18:23:02.168Z,72.05
2022-12-01T18:25:31.229Z,81.68
2022-12-01T18:28:03.051Z,70.07
2022-12-01T18:30:32.320Z,48.60
2022-12-01T18:33:02.386Z,48.70
2022-12-01T18:35:32.125Z,43.55
2022-12-01T18:38:01.709Z,30.98
2022-12-01T18:40:30.761Z,33.22
2022-12-01T18:43:01.650Z,28.27
2022-12-01T18:45:30.833Z,35.92
2022-12-01T18:48:00.297Z,28.85
2022-12-01T18:50:29.872Z,32.53
2022-12-01T18:52:59.243Z,36.33
2022-12-01T18:55:28.468Z,30.83
2022-12-01T18:57:58.048Z,38.08
2022-12-01T19:00:28.703Z,37.88
2022-12-01T19:02:58.496Z,35.10
2022-12-01T19:05:30.763Z,36.90
2022-12-01T19:08:00.977Z,41.13
2022-12-01T19:10:30.201Z,40.38
2022-12-01T19:12:59.592Z,44.90
2022-12-01T19:15:30.338Z,49.88
2022-12-01T19:17:59.787Z,42.80
2022-12-01T19:20:28.983Z,42.80
2022-12-01T19:22:58.355Z,56.85
2022-12-01T19:25:27.609Z,48.08
2022-12-01T19:27:57.133Z,58.30
2022-12-01T19:30:26.408Z,61.88
2022-12-01T19:32:57.302Z,72.32
2022-12-01T19:35:26.703Z,69.90
2022-12-01T19:37:56.060Z,72.70
2022-12-01T19:40:25.178Z,72.72
2022-12-01T19:42:55.665Z,64.60
2022-12-01T19:45:25.703Z,72.70
2022-12-01T19:47:56.536Z,57.78
2022-12-01T19:50:25.831Z,63.03
2022-12-01T19:52:55.290Z,58.90
2022-12-01T19:55:24.348Z,66.55
2022-12-01T19:57:55.027Z,61.65
2022-12-01T20:00:25.865Z,57.25
2022-12-01T20:02:57.772Z,61.15
2022-12-01T20:05:27.040Z,50.35
2022-12-01T20:07:56.443Z,51.92
2022-12-01T20:10:25.667Z,51.70
2022-12-01T20:12:55.230Z,68.57
2022-12-01T20:15:24.321Z,62.78
2022-12-01T20:17:53.987Z,69.03
2022-12-01T20:20:25.688Z,67.93
2022-12-01T20:22:55.121Z,70.55
2022-12-01T20:25:24.292Z,73.25
2022-12-01T20:27:53.636Z,73.72
2022-12-01T20:30:22.759Z,83.65
2022-12-01T20:32:52.079Z,94.22
2022-12-01T20:35:21.203Z,71.72
2022-12-01T20:37:51.968Z,67.05
2022-12-01T20:40:21.756Z,62.80
2022-12-01T20:42:51.158Z,62.13
2022-12-01T20:45:20.523Z,61.72
2022-12-01T20:47:49.902Z,60.13
2022-12-01T20:50:19.061Z,61.47
2022-12-01T20:52:48.558Z,60.33
2022-12-01T20:55:19.129Z,61.25
2022-12-01T20:57:48.535Z,126.38
2022-12-01T21:00:18.438Z,124.47
2022-12-01T21:02:48.188Z,114.22
2022-12-01T21:05:17.573Z,96.20
2022-12-01T21:07:47.193Z,91.43
2022-12-01T21:10:19.954Z,81.78
2022-12-01T21:13:12.018Z,89.28
2022-12-01T21:15:47.827Z,83.07
2022-12-01T21:18:23.167Z,89.28
2022-12-01T21:20:57.900Z,93.80
2022-12-01T21:23:28.241Z,67.35
2022-12-01T21:25:58.209Z,51.05
2022-12-01T21:28:28.997Z,47.55
2022-12-01T21:31:11.629Z,51.38
2022-12-01T21:33:41.247Z,41.67
2022-12-01T21:36:17.408Z,44.42
2022-12-01T21:38:49.392Z,55.30
2022-12-01T21:41:25.282Z,58.05
2022-12-01T21:43:57.445Z,78.22
2022-12-01T21:46:26.879Z,77.53
2022-12-01T21:48:56.621Z,81.57
2022-12-01T21:51:26.331Z,74.32
2022-12-01T21:53:57.983Z,76.97
2022-12-01T21:56:31.672Z,75.00
2022-12-01T21:59:18.071Z,57.13
2022-12-01T22:04:22.638Z,57.42
2022-12-01T22:06:54.459Z,55.47
2022-12-01T22:09:27.469Z,51.88
2022-12-01T22:11:59.227Z,49.05
2022-12-01T22:14:35.730Z,55.05
2022-12-01T22:17:18.050Z,60.70
2022-12-01T22:19:54.913Z,56.78
2022-12-01T22:22:26.433Z,52.35
2022-12-01T22:24:59.345Z,52.60
2022-12-01T22:27:33.545Z,44.33
2022-12-01T22:30:17.821Z,49.15
2022-12-01T22:32:55.965Z,52.88
2022-12-01T22:35:28.383Z,51.03
2022-12-01T22:38:12.147Z,49.83
2022-12-01T22:40:44.399Z,48.42
2022-12-01T22:43:38.194Z,57.92
2022-12-01T22:46:42.184Z,45.50
2022-12-01T22:49:19.564Z,42.20
2022-12-01T22:51:51.222Z,38.53
2022-12-01T22:54:35.203Z,43.72
2022-12-01T22:57:36.661Z,43.65
2022-12-01T23:00:17.274Z,44.63
2022-12-01T23:02:50.358Z,40.85
2022-12-01T23:05:24.770Z,38.20
2022-12-01T23:07:55.301Z,35.97
2022-12-01T23:10:26.758Z,36.58
2022-12-01T23:12:59.096Z,37.70
2022-12-01T23:15:33.339Z,41.70
2022-12-01T23:18:12.787Z,39.22
2022-12-01T23:20:43.345Z,34.72
2022-12-01T23:23:15.987Z,33.67
2022-12-01T23:25:46.019Z,34.97
2022-12-01T23:28:16.216Z,36.58
2022-12-01T23:30:47.332Z,33.88
2022-12-01T23:33:21.004Z,31.77
2022-12-01T23:35:55.044Z,31.75
2022-12-01T23:38:26.329Z,31.13
2022-12-01T23:40:58.085Z,31.27
2022-12-01T23:43:29.388Z,38.28
2022-12-01T23:46:05.261Z,35.30
2022-12-01T23:48:39.848Z,37.45
2022-12-01T23:51:19.658Z,34.30
2022-12-01T23:53:49.313Z,34.42
2022-12-01T23:56:21.737Z,34.50
2022-12-01T23:58:51.817Z,30.65
